Thunder radar more information blitzortung!


Radar de pluja more information rain snow radar


Visita la nostra xarxa de llocs de meteo:

Template documentation
and downloads

And another site



No particular awareness of the weather is required.    There are no Weather-warnings

Pagina Historial Weather Underground text

Diari Resum Novembre 18, 2017 Unitats:  Mètric    Imperial   Tant
« Previous Dia
SegĂźent Dia »
Diari Setmana Mensual Anual Personalitzada
  Maxima: Minima: Media:
Temperatura: 16.6 °C 4.0 °C 11.2 °C
Punt de rosada: 7.7 °C -3.8 °C 2.5 °C
Humitat: 65 % 46 % 55 %
Wind Speed: 9.3 km/h 0.0 km/h 3 km/h
RĂ fegues de vent: 9.3 km/h - -
Vent:- - South
Pression baro: 1022.9 hPa 1018.8 hPa -
Precipitacions: 0.0 mm    
Historical Graphs
 
 
Dades de taula per Novembre 18, 2017
Temps Temperatura Punt de rosada Pression baro Vent Wind Speed RĂ fegues de vent Humitat Rainfall Rate (Hourly)
00:05 8.9 °C -2.1 °C 1019.9 hPa West 2.3 km/h   46 % 0.0 mm
00:10 8.7 °C -2.3 °C 1019.9 hPa West 1.9 km/h   46 % 0.0 mm
00:15 8.5 °C -2.5 °C 1019.9 hPa Calm     46 % 0.0 mm
00:25 5.2 °C -3.1 °C 1018.8 hPa Calm   3.2 km/h 55 % 0.0 mm
00:35 5.1 °C -3.2 °C 1018.8 hPa WSW 1.6 km/h 3.2 km/h 55 % 0.0 mm
00:45 4.5 °C -3.8 °C 1018.8 hPa WSW 3.2 km/h 3.2 km/h 55 % 0.0 mm
00:55 4.5 °C -3.6 °C 1018.8 hPa Calm   3.2 km/h 56 % 0.0 mm
01:05 4.5 °C -3.3 °C 1018.8 hPa Calm   3.2 km/h 57 % 0.0 mm
01:15 4.5 °C -3.3 °C 1019.9 hPa Calm   3.2 km/h 57 % 0.0 mm
01:25 4.4 °C -3.4 °C 1019.9 hPa SW 3.2 km/h 4.8 km/h 57 % 0.0 mm
01:35 4.0 °C -3.6 °C 1019.9 hPa Calm   4.8 km/h 58 % 0.0 mm
01:45 4.2 °C -3.3 °C 1019.9 hPa SW 3.2 km/h 3.2 km/h 58 % 0.0 mm
01:55 4.2 °C -3.1 °C 1019.9 hPa Calm   3.2 km/h 59 % 0.0 mm
02:05 4.4 °C -2.9 °C 1019.9 hPa Calm   3.2 km/h 59 % 0.0 mm
02:15 4.8 °C -2.6 °C 1019.9 hPa West 1.6 km/h 3.2 km/h 59 % 0.0 mm
02:25 4.9 °C -2.4 °C 1019.9 hPa NW 1.6 km/h 1.6 km/h 59 % 0.0 mm
02:35 5.3 °C -1.8 °C 1019.9 hPa NE 3.2 km/h 3.2 km/h 60 % 0.0 mm
03:05 6.9 °C -0.8 °C 1020.9 hPa Calm   1.6 km/h 58 % 0.0 mm
03:15 7.5 °C -0.2 °C 1019.9 hPa Calm   1.6 km/h 58 % 0.0 mm
03:25 7.6 °C -0.4 °C 1020.9 hPa North 1.6 km/h 4.8 km/h 57 % 0.0 mm
03:35 8.1 °C -0.2 °C 1020.9 hPa North 1.6 km/h 3.2 km/h 56 % 0.0 mm
03:45 7.9 °C -0.3 °C 1020.9 hPa Calm   3.2 km/h 56 % 0.0 mm
03:55 8.2 °C -0.1 °C 1020.9 hPa WSW 3.2 km/h 4.8 km/h 56 % 0.0 mm
04:05 8.2 °C -0.1 °C 1020.9 hPa SW 1.6 km/h 4.8 km/h 56 % 0.0 mm
04:15 9.1 °C 1.0 °C 1020.9 hPa SW 1.6 km/h 4.8 km/h 57 % 0.0 mm
04:25 9.8 °C 1.4 °C 1020.9 hPa SW 1.6 km/h 4.8 km/h 56 % 0.0 mm
04:35 10.1 °C 1.4 °C 1020.9 hPa SW 4.8 km/h 4.8 km/h 55 % 0.0 mm
04:55 11.5 °C 2.5 °C 1020.9 hPa SSE 1.6 km/h 3.2 km/h 54 % 0.0 mm
05:05 11.8 °C 2.8 °C 1020.9 hPa East 1.6 km/h 3.2 km/h 54 % 0.0 mm
11:08 11.8 °C 2.5 °C 1020.9 hPa North 5.6 km/h 5.6 km/h 53 % 0.0 mm
11:09 11.8 °C 2.5 °C 1020.9 hPa North 5.6 km/h 5.6 km/h 53 % 0.0 mm
11:14 11.8 °C 2.5 °C 1020.9 hPa North 5.6 km/h 5.6 km/h 53 % 0.0 mm
11:19 11.9 °C 2.6 °C 1021.9 hPa NNE 9.3 km/h 9.3 km/h 53 % 0.0 mm
11:24 11.9 °C 2.6 °C 1021.9 hPa NNW 7.4 km/h 7.4 km/h 53 % 0.0 mm
11:29 11.9 °C 2.6 °C 1021.9 hPa NW 9.3 km/h 9.3 km/h 53 % 0.0 mm
11:34 12.4 °C 2.8 °C 1021.9 hPa North 2.3 km/h   52 % 0.0 mm
11:39 12.6 °C 3.0 °C 1021.9 hPa NNE 3.9 km/h 3.9 km/h 52 % 0.0 mm
11:44 12.8 °C 3.2 °C 1021.9 hPa North 5.6 km/h 5.6 km/h 52 % 0.0 mm
11:49 12.8 °C 3.2 °C 1021.9 hPa ESE 5.8 km/h 5.8 km/h 52 % 0.0 mm
11:54 13.0 °C 3.4 °C 1021.9 hPa East 5.6 km/h 5.6 km/h 52 % 0.0 mm
11:59 13.2 °C 3.6 °C 1021.9 hPa NNE 5.6 km/h 5.6 km/h 52 % 0.0 mm
12:04 13.5 °C 3.8 °C 1021.9 hPa NNW 3.7 km/h 3.7 km/h 52 % 0.0 mm
12:09 13.7 °C 4.0 °C 1021.9 hPa WNW 5.6 km/h 5.6 km/h 52 % 0.0 mm
12:14 13.8 °C 4.1 °C 1021.9 hPa NW 4.7 km/h 4.7 km/h 52 % 0.0 mm
12:19 14.1 °C 4.4 °C 1021.9 hPa NNE 2.6 km/h 2.6 km/h 52 % 0.0 mm
12:24 14.4 °C 4.7 °C 1021.9 hPa NNE 4.2 km/h 4.2 km/h 52 % 0.0 mm
12:29 14.5 °C 4.8 °C 1021.9 hPa NNW 5.6 km/h 5.6 km/h 52 % 0.0 mm
12:34 14.7 °C 4.9 °C 1020.9 hPa NE 3.7 km/h 3.7 km/h 52 % 0.0 mm
12:39 14.7 °C 4.9 °C 1020.9 hPa ENE 3.7 km/h 3.7 km/h 52 % 0.0 mm
12:44 15.0 °C 5.2 °C 1020.9 hPa ENE 5.6 km/h 5.6 km/h 52 % 0.0 mm
12:49 15.1 °C 5.3 °C 1021.9 hPa NE 5.8 km/h 5.8 km/h 52 % 0.0 mm
12:51 15.1 °C 5.3 °C 1021.9 hPa NNE 5.6 km/h 5.6 km/h 52 % 0.0 mm
12:56 15.5 °C 5.4 °C 1021.9 hPa WSW 3.2 km/h   51 % 0.0 mm
13:01 15.8 °C 5.9 °C 1021.9 hPa NNE 3.7 km/h 3.7 km/h 52 % 0.0 mm
13:06 15.7 °C 5.9 °C 1021.9 hPa NE 3.7 km/h 3.7 km/h 52 % 0.0 mm
13:11 15.8 °C 5.9 °C 1021.9 hPa ESE 3.7 km/h 3.7 km/h 52 % 0.0 mm
13:16 16.0 °C 6.2 °C 1021.9 hPa SW 5.0 km/h 5.0 km/h 52 % 0.0 mm
13:21 16.4 °C 6.5 °C 1021.9 hPa SW 3.7 km/h   52 % 0.0 mm
13:26 16.4 °C 6.8 °C 1021.9 hPa NW 1.9 km/h 2.3 km/h 53 % 0.0 mm
13:31 16.2 °C 6.6 °C 1021.9 hPa North 1.9 km/h 1.9 km/h 53 % 0.0 mm
13:36 16.3 °C 6.7 °C 1021.9 hPa NNE 1.9 km/h   53 % 0.0 mm
13:41 16.3 °C 6.7 °C 1021.9 hPa NNW 3.7 km/h 3.7 km/h 53 % 0.0 mm
13:46 16.5 °C 7.2 °C 1021.9 hPa NNE 3.2 km/h 3.2 km/h 54 % 0.0 mm
13:51 16.2 °C 6.9 °C 1020.9 hPa NE 7.4 km/h 7.4 km/h 54 % 0.0 mm
13:56 16.1 °C 7.1 °C 1020.9 hPa SE 3.7 km/h 3.7 km/h 55 % 0.0 mm
14:01 16.1 °C 7.1 °C 1020.9 hPa ESE 5.6 km/h 5.6 km/h 55 % 0.0 mm
14:11 16.0 °C 7.2 °C 1021.9 hPa ESE 5.8 km/h 5.8 km/h 56 % 0.0 mm
14:16 16.0 °C 7.2 °C 1021.9 hPa WSW 3.2 km/h   56 % 0.0 mm
14:21 16.2 °C 7.4 °C 1020.9 hPa ESE 3.7 km/h 3.7 km/h 56 % 0.0 mm
14:26 16.3 °C 7.5 °C 1020.9 hPa ESE 3.9 km/h 3.9 km/h 56 % 0.0 mm
14:31 16.4 °C 7.6 °C 1020.9 hPa East 3.9 km/h 3.9 km/h 56 % 0.0 mm
14:36 16.3 °C 7.5 °C 1020.9 hPa NE 5.6 km/h 5.6 km/h 56 % 0.0 mm
14:41 16.4 °C 7.6 °C 1020.9 hPa East 5.8 km/h 5.8 km/h 56 % 0.0 mm
14:46 16.3 °C 7.5 °C 1020.9 hPa NNE 5.6 km/h 5.6 km/h 56 % 0.0 mm
14:51 16.4 °C 7.6 °C 1020.9 hPa SSE 4.7 km/h 4.7 km/h 56 % 0.0 mm
14:56 16.5 °C 7.7 °C 1020.9 hPa ESE 5.6 km/h 5.6 km/h 56 % 0.0 mm
15:01 16.5 °C 7.7 °C 1020.9 hPa NE 3.9 km/h 3.9 km/h 56 % 0.0 mm
15:06 16.4 °C 7.6 °C 1020.9 hPa ESE 4.2 km/h 4.2 km/h 56 % 0.0 mm
15:11 16.4 °C 7.3 °C 1020.9 hPa ENE 3.7 km/h 3.7 km/h 55 % 0.0 mm
15:16 16.5 °C 7.7 °C 1020.9 hPa NNE 4.2 km/h 4.2 km/h 56 % 0.0 mm
15:21 16.5 °C 7.4 °C 1020.9 hPa NE 3.7 km/h 3.7 km/h 55 % 0.0 mm
15:26 16.6 °C 7.5 °C 1020.9 hPa Calm     55 % 0.0 mm
15:31 16.6 °C 7.5 °C 1020.9 hPa ENE 3.9 km/h 3.9 km/h 55 % 0.0 mm
15:36 16.5 °C 7.4 °C 1020.9 hPa East 3.7 km/h 3.7 km/h 55 % 0.0 mm
15:41 16.5 °C 7.4 °C 1020.9 hPa SE 5.6 km/h 5.6 km/h 55 % 0.0 mm
15:46 16.5 °C 7.4 °C 1020.9 hPa East 3.7 km/h 3.7 km/h 55 % 0.0 mm
15:51 16.6 °C 7.5 °C 1020.9 hPa ENE 3.9 km/h 3.9 km/h 55 % 0.0 mm
15:56 16.6 °C 7.5 °C 1020.9 hPa ESE 3.7 km/h 3.7 km/h 55 % 0.0 mm
16:01 16.5 °C 7.4 °C 1020.9 hPa ESE 5.6 km/h 5.6 km/h 55 % 0.0 mm
16:06 16.5 °C 7.4 °C 1020.9 hPa ESE 3.2 km/h 3.2 km/h 55 % 0.0 mm
16:11 16.5 °C 7.4 °C 1020.9 hPa ESE 4.2 km/h 4.2 km/h 55 % 0.0 mm
16:16 16.5 °C 7.4 °C 1020.9 hPa ESE 4.2 km/h 4.2 km/h 55 % 0.0 mm
16:21 16.4 °C 7.3 °C 1020.9 hPa ESE 3.7 km/h 3.7 km/h 55 % 0.0 mm
16:26 16.4 °C 7.3 °C 1020.9 hPa East 3.7 km/h 3.7 km/h 55 % 0.0 mm
16:31 16.4 °C 7.3 °C 1020.9 hPa SE 3.9 km/h 3.9 km/h 55 % 0.0 mm
16:36 16.5 °C 7.4 °C 1020.9 hPa South 1.9 km/h 1.9 km/h 55 % 0.0 mm
16:41 16.6 °C 7.5 °C 1020.9 hPa SSE 4.2 km/h   55 % 0.0 mm
16:46 16.5 °C 7.4 °C 1020.9 hPa South 1.9 km/h 1.9 km/h 55 % 0.0 mm
16:51 16.5 °C 7.4 °C 1020.9 hPa South 1.9 km/h   55 % 0.0 mm
16:56 16.4 °C 7.6 °C 1020.9 hPa SSE 1.9 km/h   56 % 0.0 mm
17:01 16.3 °C 7.5 °C 1020.9 hPa SE 3.7 km/h 3.7 km/h 56 % 0.0 mm
17:06 16.2 °C 7.2 °C 1020.9 hPa East 1.9 km/h 1.9 km/h 55 % 0.0 mm
17:11 16.0 °C 7.2 °C 1020.9 hPa East 1.9 km/h 1.9 km/h 56 % 0.0 mm
17:16 15.9 °C 7.1 °C 1020.9 hPa Calm     56 % 0.0 mm
17:21 15.7 °C 6.9 °C 1020.9 hPa Calm     56 % 0.0 mm
17:26 15.5 °C 6.8 °C 1020.9 hPa Calm     56 % 0.0 mm
17:31 15.3 °C 6.8 °C 1020.9 hPa WSW 2.3 km/h 2.3 km/h 57 % 0.0 mm
17:36 15.0 °C 6.6 °C 1020.9 hPa WSW 2.3 km/h 2.3 km/h 57 % 0.0 mm
17:41 14.8 °C 6.3 °C 1020.9 hPa WSW 3.2 km/h 3.2 km/h 57 % 0.0 mm
17:46 14.4 °C 6.2 °C 1020.9 hPa WSW 3.7 km/h 3.7 km/h 58 % 0.0 mm
17:51 14.3 °C 6.2 °C 1021.9 hPa WSW 1.9 km/h 1.9 km/h 58 % 0.0 mm
17:56 14.0 °C 5.6 °C 1021.9 hPa WNW 2.3 km/h 2.3 km/h 57 % 0.0 mm
18:01 13.9 °C 5.3 °C 1021.9 hPa WSW 5.6 km/h 5.6 km/h 56 % 0.0 mm
18:03 13.9 °C 5.3 °C 1021.9 hPa WNW 1.9 km/h   56 % 0.0 mm
18:08 13.7 °C 5.3 °C 1021.9 hPa East 5.0 km/h 5.0 km/h 57 % 0.0 mm
18:13 13.6 °C 5.5 °C 1021.9 hPa WSW 4.7 km/h 4.7 km/h 58 % 0.0 mm
18:18 13.5 °C 5.2 °C 1021.9 hPa West 3.2 km/h 3.2 km/h 57 % 0.0 mm
18:23 13.3 °C 4.9 °C 1021.9 hPa WSW 3.7 km/h 3.7 km/h 57 % 0.0 mm
18:28 13.1 °C 4.8 °C 1021.9 hPa West 3.7 km/h 3.7 km/h 57 % 0.0 mm
18:33 12.9 °C 4.3 °C 1021.9 hPa West 3.7 km/h 3.7 km/h 56 % 0.0 mm
18:38 12.8 °C 4.0 °C 1021.9 hPa West 5.6 km/h 5.6 km/h 55 % 0.0 mm
18:43 12.7 °C 3.6 °C 1021.9 hPa SW 3.7 km/h 3.7 km/h 54 % 0.0 mm
18:48 12.4 °C 3.3 °C 1021.9 hPa SW 3.2 km/h 3.2 km/h 54 % 0.0 mm
18:53 12.2 °C 2.9 °C 1021.9 hPa SW 3.7 km/h 3.7 km/h 53 % 0.0 mm
18:58 12.0 °C 2.7 °C 1021.9 hPa SW 2.6 km/h 2.6 km/h 53 % 0.0 mm
19:00 7.3 °C -0.7 °C 1020.9 hPa NW 1.6 km/h 3.2 km/h 57 % 0.0 mm
19:03 11.8 °C 2.5 °C 1021.9 hPa SW 5.6 km/h 5.6 km/h 53 % 0.0 mm
19:08 11.6 °C 2.3 °C 1021.9 hPa SW 5.6 km/h 5.6 km/h 53 % 0.0 mm
19:10 7.2 °C -0.5 °C 1020.9 hPa North 1.6 km/h 3.2 km/h 58 % 0.0 mm
19:13 11.5 °C 2.2 °C 1021.9 hPa SW 3.7 km/h 3.7 km/h 53 % 0.0 mm
19:18 11.3 °C 2.1 °C 1021.9 hPa WSW 5.6 km/h 5.6 km/h 53 % 0.0 mm
19:20 6.8 °C -0.9 °C 1020.9 hPa Calm   1.6 km/h 58 % 0.0 mm
19:23 11.2 °C 1.9 °C 1021.9 hPa SW 3.9 km/h 3.9 km/h 53 % 0.0 mm
19:28 11.1 °C 1.9 °C 1021.9 hPa WSW 3.7 km/h 3.7 km/h 53 % 0.0 mm
19:33 11.1 °C 1.9 °C 1021.9 hPa SW 3.9 km/h 3.9 km/h 53 % 0.0 mm
19:38 11.0 °C 1.8 °C 1021.9 hPa WSW 3.7 km/h 3.7 km/h 53 % 0.0 mm
19:40 6.3 °C -1.1 °C 1019.9 hPa Calm   3.2 km/h 59 % 0.0 mm
19:43 11.0 °C 1.8 °C 1021.9 hPa WSW 3.7 km/h   53 % 0.0 mm
19:48 10.9 °C 1.7 °C 1021.9 hPa Calm     53 % 0.0 mm
19:50 6.2 °C -1.0 °C 1019.9 hPa WSW 1.6 km/h 1.6 km/h 60 % 0.0 mm
19:53 10.9 °C 1.7 °C 1021.9 hPa East 3.7 km/h 3.7 km/h 53 % 0.0 mm
19:58 10.8 °C 1.6 °C 1021.9 hPa Calm     53 % 0.0 mm
20:03 10.6 °C 1.4 °C 1021.9 hPa WSW 3.7 km/h 3.7 km/h 53 % 0.0 mm
20:08 10.5 °C 1.3 °C 1021.9 hPa SW 2.3 km/h 2.3 km/h 53 % 0.0 mm
20:10 5.8 °C -1.2 °C 1018.8 hPa Calm   1.6 km/h 61 % 0.0 mm
20:13 10.5 °C 1.3 °C 1021.9 hPa SW 3.7 km/h 3.7 km/h 53 % 0.0 mm
20:18 10.4 °C 1.2 °C 1021.9 hPa Calm     53 % 0.0 mm
20:20 5.8 °C -1.2 °C 1018.8 hPa WSW 1.6 km/h 3.2 km/h 61 % 0.0 mm
20:23 10.2 °C 1.1 °C 1021.9 hPa Calm     53 % 0.0 mm
20:28 10.1 °C 0.9 °C 1021.9 hPa WSW 4.2 km/h 4.2 km/h 53 % 0.0 mm
20:30 6.0 °C -0.9 °C 1019.9 hPa West 1.6 km/h 3.2 km/h 61 % 0.0 mm
20:38 10.0 °C 0.8 °C 1021.9 hPa SW 3.5 km/h   53 % 0.0 mm
20:43 10.0 °C 0.8 °C 1021.9 hPa West 1.9 km/h 1.9 km/h 53 % 0.0 mm
20:48 9.9 °C 0.8 °C 1021.9 hPa Calm     53 % 0.0 mm
20:50 5.7 °C -1.0 °C 1019.9 hPa West 3.2 km/h 3.2 km/h 62 % 0.0 mm
20:53 9.8 °C 0.7 °C 1021.9 hPa SW 1.4 km/h   53 % 0.0 mm
20:58 9.8 °C 0.7 °C 1021.9 hPa SW 2.3 km/h 2.3 km/h 53 % 0.0 mm
21:00 5.7 °C -1.0 °C 1019.9 hPa WSW 3.2 km/h 4.8 km/h 62 % 0.0 mm
21:03 9.5 °C 0.4 °C 1021.9 hPa SW 3.7 km/h 3.7 km/h 53 % 0.0 mm
21:08 9.4 °C 0.3 °C 1021.9 hPa SW 3.7 km/h 3.7 km/h 53 % 0.0 mm
21:10 5.6 °C -1.1 °C 1020.9 hPa WSW 3.2 km/h 4.8 km/h 62 % 0.0 mm
21:13 9.4 °C 0.3 °C 1021.9 hPa SW 2.3 km/h 2.3 km/h 53 % 0.0 mm
21:18 9.4 °C 0.3 °C 1021.9 hPa WSW 2.6 km/h 2.6 km/h 53 % 0.0 mm
21:20 5.8 °C -0.9 °C 1020.9 hPa WSW 1.6 km/h 4.8 km/h 62 % 0.0 mm
21:23 9.4 °C 0.3 °C 1021.9 hPa West 3.9 km/h 3.9 km/h 53 % 0.0 mm
21:28 9.5 °C 0.4 °C 1021.9 hPa West 2.3 km/h 2.3 km/h 53 % 0.0 mm
21:30 6.0 °C -0.7 °C 1020.9 hPa Calm   3.2 km/h 62 % 0.0 mm
21:33 9.4 °C 0.3 °C 1021.9 hPa Calm     53 % 0.0 mm
21:38 9.4 °C 0.3 °C 1021.9 hPa West 3.7 km/h 3.7 km/h 53 % 0.0 mm
21:40 5.9 °C -0.6 °C 1020.9 hPa WSW 1.6 km/h 3.2 km/h 63 % 0.0 mm
21:43 9.5 °C 0.4 °C 1021.9 hPa West 1.9 km/h 1.9 km/h 53 % 0.0 mm
21:48 9.5 °C 0.4 °C 1022.9 hPa Calm     53 % 0.0 mm
21:50 5.4 °C -1.1 °C 1020.9 hPa WSW 3.2 km/h 3.2 km/h 63 % 0.0 mm
21:53 9.5 °C 0.4 °C 1022.9 hPa West 1.9 km/h 1.9 km/h 53 % 0.0 mm
21:58 9.4 °C 0.3 °C 1022.9 hPa WSW 3.7 km/h 3.7 km/h 53 % 0.0 mm
22:00 5.6 °C -0.9 °C 1020.9 hPa WSW 1.6 km/h 3.2 km/h 63 % 0.0 mm
22:03 9.1 °C 0.0 °C 1021.9 hPa SW 3.9 km/h 3.9 km/h 53 % 0.0 mm
22:08 8.9 °C -0.2 °C 1021.9 hPa WSW 3.7 km/h 3.7 km/h 53 % 0.0 mm
22:10 5.6 °C -0.9 °C 1020.9 hPa West 1.6 km/h 3.2 km/h 63 % 0.0 mm
22:13 8.8 °C -0.3 °C 1021.9 hPa WSW 3.7 km/h 3.7 km/h 53 % 0.0 mm
22:18 8.8 °C 0.0 °C 1021.9 hPa WNW 3.2 km/h 3.2 km/h 54 % 0.0 mm
22:20 5.5 °C -1.0 °C 1020.9 hPa WSW 3.2 km/h 3.2 km/h 63 % 0.0 mm
22:24 8.8 °C 0.0 °C 1021.9 hPa SW 3.9 km/h 3.9 km/h 54 % 0.0 mm
22:29 8.7 °C -0.1 °C 1021.9 hPa SW 2.3 km/h 2.6 km/h 54 % 0.0 mm
22:30 5.5 °C -0.8 °C 1020.9 hPa Calm   3.2 km/h 64 % 0.0 mm
22:34 8.5 °C -0.3 °C 1021.9 hPa SW 5.6 km/h 5.6 km/h 54 % 0.0 mm
22:39 8.5 °C -0.3 °C 1021.9 hPa WSW 5.6 km/h 5.6 km/h 54 % 0.0 mm
22:40 5.5 °C -0.8 °C 1019.9 hPa WSW 1.6 km/h 3.2 km/h 64 % 0.0 mm
22:44 8.4 °C -0.4 °C 1021.9 hPa SW 2.3 km/h 2.3 km/h 54 % 0.0 mm
22:49 8.4 °C -0.4 °C 1020.9 hPa SW 3.7 km/h 3.7 km/h 54 % 0.0 mm
22:50 5.6 °C -0.7 °C 1019.9 hPa Calm   3.2 km/h 64 % 0.0 mm
22:54 8.4 °C -0.4 °C 1020.9 hPa WSW 1.9 km/h 1.9 km/h 54 % 0.0 mm
22:59 8.3 °C -0.5 °C 1020.9 hPa Calm     54 % 0.0 mm
23:00 5.5 °C -0.6 °C 1019.9 hPa Calm   3.2 km/h 65 % 0.0 mm
23:04 8.4 °C -0.4 °C 1021.9 hPa NW 3.7 km/h 3.7 km/h 54 % 0.0 mm
23:09 8.4 °C -0.4 °C 1021.9 hPa NNW 2.3 km/h 2.3 km/h 54 % 0.0 mm
23:10 5.2 °C -1.1 °C 1019.9 hPa NNW 1.6 km/h 1.6 km/h 64 % 0.0 mm
23:14 8.3 °C -0.5 °C 1021.9 hPa NNW 1.9 km/h 1.9 km/h 54 % 0.0 mm
23:19 7.8 °C -0.9 °C 1021.9 hPa SW 3.7 km/h 3.7 km/h 54 % 0.0 mm
23:20 5.1 °C -0.9 °C 1019.9 hPa Calm   3.2 km/h 65 % 0.0 mm
23:24 7.4 °C -1.3 °C 1021.9 hPa WSW 3.7 km/h 3.7 km/h 54 % 0.0 mm
23:29 7.3 °C -1.2 °C 1021.9 hPa WSW 3.7 km/h 3.7 km/h 55 % 0.0 mm
23:30 5.1 °C -0.9 °C 1019.9 hPa NNW 1.6 km/h 3.2 km/h 65 % 0.0 mm
23:34 7.5 °C -0.9 °C 1021.9 hPa WSW 3.7 km/h 3.7 km/h 55 % 0.0 mm
23:39 7.5 °C -0.9 °C 1021.9 hPa Calm     55 % 0.0 mm
23:44 7.4 °C -1.1 °C 1021.9 hPa Calm     55 % 0.0 mm
23:49 7.3 °C -0.9 °C 1021.9 hPa Calm     56 % 0.0 mm
23:50 5.0 °C -1.1 °C 1019.9 hPa NNW 1.6 km/h 4.8 km/h 65 % 0.0 mm
23:54 7.2 °C -1.0 °C 1021.9 hPa SSW 3.2 km/h   56 % 0.0 mm
23:59 7.2 °C -1.0 °C 1021.9 hPa SW 3.9 km/h 3.9 km/h 56 % 0.0 mm
Meteo Sesrovires
Elogis d' Weather Underground - 3.75 mb

Guio original per  Jim McMurry - jmcmurry@mwt.net Adaptat per a la plantilla per  Wim van der Kuil - Leuven-Template.eu

Trobareu la nostra informacio del temps tambe a:

Weather Underground

AWEKAS